Time;durP1;ratioP1;P1;durP2;ratioP2;P2;SDS_P1;SDS_P2;PMS_P1;PMS_P2;Temp;Humidity;BMP_temperature;BMP_pressure;BME280_temperature;BME280_humidity;BME280_pressure;Samples;Min_cycle;Max_cycle;Signal;HPM_P1;HPM_P2
2022/05/10 00:02:16;;;;;;;4.63;4.10;;;20.20;58.80;;;20.72;42.25;99213.91;4997999;28;124254;-89
2022/05/10 00:04:50;;;;;;;4.00;3.60;;;20.20;59.50;;;20.72;42.43;99211.91;4972466;28;123626;-91
2022/05/10 00:07:19;;;;;;;4.67;3.60;;;20.20;59.60;;;20.69;42.70;99209.84;4984683;28;114403;-90
2022/05/10 00:09:45;;;;;;;4.10;3.80;;;20.10;59.70;;;20.67;42.53;99211.38;4969422;28;115067;-90
2022/05/10 00:12:12;;;;;;;5.43;3.80;;;20.10;59.50;;;20.65;42.90;99200.50;4967880;28;124027;-88
2022/05/10 00:14:39;;;;;;;4.70;3.90;;;20.10;59.40;;;20.62;42.88;99211.69;4969255;28;124068;-91
2022/05/10 00:17:06;;;;;;;4.57;3.60;;;20.10;59.70;;;20.58;43.02;99206.00;4963789;28;113473;-90
2022/05/10 00:19:33;;;;;;;5.60;4.30;;;;;;;20.55;43.05;99212.31;4980424;28;114155;-90
2022/05/10 00:22:00;;;;;;;7.63;4.13;;;;;;;20.51;43.07;99206.63;4959814;28;124668;-90
2022/05/10 00:24:27;;;;;;;5.00;4.07;;;;;;;20.47;43.36;99204.91;4967829;28;123743;-90
2022/05/10 00:26:55;;;;;;;4.17;3.77;;;19.90;60.00;;;20.41;43.39;99206.38;4969497;28;114220;-89
2022/05/10 00:29:21;;;;;;;4.83;3.90;;;19.80;60.20;;;20.38;43.37;99205.13;4972364;28;113860;-89
2022/05/10 00:31:48;;;;;;;4.30;3.90;;;19.80;60.40;;;20.35;43.39;99208.69;4968609;28;124095;-90
2022/05/10 00:34:17;;;;;;;4.60;4.10;;;19.80;60.60;;;20.32;43.41;99206.63;4957551;28;123483;-90
2022/05/10 00:36:44;;;;;;;3.80;3.50;;;19.80;60.80;;;20.29;43.44;99210.97;4959553;28;114479;-90
2022/05/10 00:39:12;;;;;;;5.27;4.50;;;19.70;60.80;;;20.24;43.68;99205.63;4988044;28;113265;-90
2022/05/10 00:42:05;;;;;;;4.00;3.60;;;19.70;61.00;;;20.21;43.87;99208.38;4983065;28;124162;-89
2022/05/10 00:44:43;;;;;;;4.20;3.80;;;19.60;61.10;;;20.15;43.76;99205.06;4967759;28;123486;-88
2022/05/10 00:47:49;;;;;;;5.03;3.90;;;19.60;61.30;;;20.12;44.05;99196.53;4996953;28;115290;-91
2022/05/10 00:50:40;;;;;;;4.33;3.90;;;19.60;61.60;;;20.08;44.05;99196.47;4966610;28;114877;-91
2022/05/10 00:53:52;;;;;;;4.83;4.40;;;19.60;61.80;;;20.05;44.13;99195.22;4984234;28;123326;-91
2022/05/10 00:56:34;;;;;;;4.30;3.90;;;19.50;61.90;;;20.00;44.38;99195.50;4926375;28;123620;-89
2022/05/10 00:59:26;;;;;;;4.30;3.90;;;19.40;62.10;;;19.95;44.29;99195.78;4911443;28;114432;-89
2022/05/10 01:02:11;;;;;;;4.13;3.83;;;19.40;62.20;;;19.94;44.62;99196.16;4944925;28;114027;-89
2022/05/10 01:04:52;;;;;;;4.73;4.20;;;20.20;63.20;;;19.91;44.39;99194.88;4929630;28;122900;-91
2022/05/10 01:07:31;;;;;;;4.67;3.83;;;19.30;62.50;;;19.90;44.75;99200.84;4913330;28;122776;-90
2022/05/10 01:10:17;;;;;;;4.40;4.00;;;19.20;62.50;;;19.84;44.55;99198.31;4926781;28;115256;-91
2022/05/10 01:13:14;;;;;;;4.87;4.37;;;19.30;62.80;;;19.81;44.74;99190.66;4911569;28;113794;-91
2022/05/10 01:15:55;;;;;;;4.23;3.83;;;19.20;62.80;;;19.79;45.13;99186.56;4926634;28;124062;-90
2022/05/10 01:18:23;;;;;;;3.67;3.37;;;19.30;63.50;;;19.78;44.93;99188.56;4894441;28;123917;-90
2022/05/10 01:20:55;;;;;;;4.23;3.83;;;19.20;63.10;;;19.76;45.06;99188.13;4896424;28;114068;-91
2022/05/10 01:23:39;;;;;;;4.67;4.27;;;19.20;63.80;;;19.73;45.08;99183.25;4926118;28;114042;-92
2022/05/10 01:26:58;;;;;;;4.30;3.90;;;19.20;63.90;;;19.70;44.90;99172.75;4914110;28;123890;-90
2022/05/10 01:29:38;;;;;;;4.03;3.70;;;19.20;64.80;;;19.67;45.30;99181.91;4975153;28;124113;-90
2022/05/10 01:35:03;;;;;;;4.63;4.07;;;19.00;63.80;;;19.61;45.21;99175.75;4952268;28;114540;-90
2022/05/10 01:37:35;;;;;;;4.30;3.90;;;19.10;64.50;;;19.60;45.32;99168.50;4960960;28;123158;-90
2022/05/10 01:40:36;;;;;;;5.17;4.43;;;19.00;64.50;;;19.56;45.51;99161.19;4968229;28;123736;-90
2022/05/10 01:43:35;;;;;;;5.10;4.43;;;19.00;64.60;;;19.53;45.46;99161.91;4975050;28;115113;-92
2022/05/10 01:46:14;;;;;;;5.57;4.53;;;19.00;64.80;;;19.51;45.44;99153.06;4963955;28;114030;-91
2022/05/10 01:48:46;;;;;;;5.27;4.17;;;19.00;65.00;;;19.50;45.60;99157.03;4948432;28;123973;-91
2022/05/10 01:51:22;;;;;;;5.80;4.10;;;18.90;65.10;;;19.47;45.63;99147.34;4951363;28;124963;-92
2022/05/10 01:53:49;;;;;;;4.47;4.07;;;18.90;65.60;;;19.46;45.76;99150.53;4982780;28;114455;-90
2022/05/10 01:56:22;;;;;;;5.00;4.50;;;18.90;65.30;;;19.42;45.60;99145.66;5002163;28;112878;-89
2022/05/10 01:58:49;;;;;;;5.07;4.20;;;18.90;65.50;;;19.38;45.68;99150.34;4985414;28;123810;-89
2022/05/10 02:01:38;;;;;;;4.97;4.47;;;18.80;65.50;;;19.34;45.84;99149.47;4964848;28;123555;-89
2022/05/10 02:04:09;;;;;;;5.43;3.90;;;18.80;65.60;;;19.31;46.07;99147.34;4998960;28;114141;-90
2022/05/10 02:06:59;;;;;;;7.93;4.20;;;18.80;65.80;;;19.28;45.93;99150.09;4999150;28;114086;-92
2022/05/10 02:09:49;;;;;;;4.73;4.33;;;18.80;65.90;;;19.24;46.11;99149.19;4997278;28;124223;-91
2022/05/10 02:12:46;;;;;;;4.80;4.00;;;18.70;66.00;;;19.21;46.18;99159.13;4992181;28;123883;-91
2022/05/10 02:15:38;;;;;;;4.17;3.70;;;18.70;66.20;;;19.17;46.20;99144.22;4968393;28;114317;-90
2022/05/10 02:18:35;;;;;;;4.90;4.50;;;18.60;66.30;;;19.14;46.33;99150.53;4967959;28;114054;-91
2022/05/10 02:21:17;;;;;;;4.90;4.33;;;18.60;66.50;;;19.14;46.26;99156.16;4969118;28;124897;-90
2022/05/10 02:24:07;;;;;;;4.60;4.20;;;18.60;66.70;;;19.10;46.41;99155.22;4982523;28;124120;-90
2022/05/10 02:26:55;;;;;;;4.70;4.30;;;18.50;66.70;;;19.08;46.49;99160.41;4983618;28;113404;-90
2022/05/10 02:29:38;;;;;;;6.80;4.00;;;18.50;66.80;;;19.06;46.51;99159.94;4954836;28;113800;-90
2022/05/10 02:34:56;;;;;;;4.87;4.07;;;18.40;67.00;;;19.00;46.68;99144.59;4970420;28;125019;-91
2022/05/10 02:37:23;;;;;;;5.07;4.57;;;18.40;67.20;;;18.98;46.61;99148.53;5000887;28;115290;-91
2022/05/10 02:39:51;;;;;;;4.53;4.13;;;18.40;67.30;;;18.99;46.75;99146.53;4967615;28;114923;-90
2022/05/10 02:42:24;;;;;;;4.53;4.13;;;18.40;67.50;;;18.96;46.87;99145.28;4965924;28;123966;-91
2022/05/10 02:44:55;;;;;;;4.70;4.30;;;18.40;67.60;;;18.94;46.78;99147.66;4996968;28;123868;-91
2022/05/10 02:47:42;;;;;;;4.70;4.30;;;18.40;67.70;;;18.92;46.82;99144.38;4948402;28;113638;-91
2022/05/10 02:50:30;;;;;;;4.77;4.27;;;18.40;67.90;;;18.91;46.92;99144.72;4965321;28;113089;-90
2022/05/10 02:52:56;;;;;;;4.43;4.03;;;18.30;67.90;;;18.89;46.88;99144.31;4956986;28;124125;-90
2022/05/10 02:55:54;;;;;;;4.53;4.13;;;18.30;68.10;;;18.87;46.92;99146.63;4948865;28;122783;-90
2022/05/10 02:58:42;;;;;;;4.37;3.97;;;18.30;68.20;;;18.80;46.97;99146.44;4987141;28;113020;-90
2022/05/10 03:01:34;;;;;;;8.33;4.07;;;18.30;68.40;;;18.77;47.20;99137.56;4969772;28;113975;-91
2022/05/10 03:04:03;;;;;;;6.80;5.00;;;18.20;68.40;;;18.74;47.29;99137.47;4985255;28;124053;-92
2022/05/10 03:06:30;;;;;;;4.63;4.23;;;18.20;68.50;;;18.74;47.08;99143.06;5003679;28;124308;-90
2022/05/10 03:08:58;;;;;;;4.53;4.13;;;18.20;68.70;;;18.71;47.39;99136.19;4970976;28;114205;-90
2022/05/10 03:11:25;;;;;;;5.00;4.50;;;18.10;68.70;;;18.70;47.69;99145.78;4998348;28;113117;-91
2022/05/10 03:13:52;;;;;;;8.10;3.90;;;18.20;69.00;;;18.70;47.51;99139.38;4969713;28;124580;-90
2022/05/10 03:16:20;;;;;;;4.73;4.33;;;18.10;69.00;;;18.70;47.49;99147.75;4968158;28;123729;-91
2022/05/10 03:18:47;;;;;;;4.37;3.97;;;18.10;69.10;;;18.67;47.56;99134.47;4970335;28;114517;-90
2022/05/10 03:21:14;;;;;;;6.77;5.40;;;18.10;69.30;;;18.64;47.55;99126.78;4972632;28;113679;-92
2022/05/10 03:23:42;;;;;;;4.73;4.30;;;18.00;69.30;;;18.63;47.74;99133.56;4970312;28;124141;-90
2022/05/10 03:26:13;;;;;;;4.67;4.10;;;18.00;69.50;;;18.62;47.63;99131.91;4990221;28;123200;-89
2022/05/10 03:28:39;;;;;;;5.07;4.57;;;18.00;69.70;;;18.60;47.84;99131.50;4991419;28;115336;-90
2022/05/10 03:31:08;;;;;;;5.43;4.40;;;20.00;71.70;;;18.58;47.95;99140.22;4967913;28;113633;-90
2022/05/10 03:33:36;;;;;;;5.40;4.90;;;18.00;70.00;;;18.56;47.97;99125.78;4990582;28;123972;-91
2022/05/10 03:36:03;;;;;;;4.80;4.20;;;18.00;70.20;;;18.55;48.04;99133.38;4968523;28;123961;-89
2022/05/10 03:38:29;;;;;;;5.20;4.70;;;18.00;70.30;;;18.53;48.06;99130.09;4978892;28;114959;-90
2022/05/10 03:40:56;;;;;;;5.10;4.60;;;18.00;70.50;;;18.52;48.11;99131.28;4968479;28;113469;-90
2022/05/10 03:43:23;;;;;;;4.97;4.47;;;17.90;70.50;;;18.50;48.12;99130.00;4964968;28;123976;-90
2022/05/10 03:45:49;;;;;;;5.20;4.60;;;17.90;70.70;;;18.47;48.26;99134.34;4969413;28;124147;-91
2022/05/10 03:48:16;;;;;;;6.00;4.33;;;17.90;70.80;;;18.44;48.42;99132.25;4969619;28;113579;-91
2022/05/10 03:50:43;;;;;;;5.60;4.90;;;17.90;71.00;;;18.44;48.50;99128.66;4990062;28;113418;-90
2022/05/10 03:53:09;;;;;;;5.47;4.97;;;17.90;71.20;;;18.42;48.64;99131.78;4980150;28;123724;-90
2022/05/10 03:55:37;;;;;;;6.20;5.40;;;17.80;71.50;;;18.40;48.51;99127.72;4954544;28;96604;-90
2022/05/10 03:58:05;;;;;;;5.00;4.50;;;17.80;71.50;;;18.36;48.71;99133.22;4970238;28;113857;-92
2022/05/10 04:00:32;;;;;;;4.93;4.53;;;17.80;71.60;;;18.35;48.58;99128.81;4984539;28;113782;-93
2022/05/10 04:02:59;;;;;;;5.90;5.20;;;17.70;71.70;;;18.34;48.60;99135.56;5002863;28;123629;-92
2022/05/10 04:05:26;;;;;;;6.40;5.43;;;17.70;71.80;;;18.31;48.88;99141.88;4968948;28;123918;-90
2022/05/10 04:07:53;;;;;;;5.97;5.20;;;17.80;72.10;;;18.31;48.97;99136.28;4969873;28;114121;-92
2022/05/10 04:10:22;;;;;;;4.90;4.40;;;17.70;72.10;;;18.28;48.93;99137.00;4984419;28;113894;-91
2022/05/10 04:12:50;;;;;;;5.93;5.40;;;17.70;73.00;;;18.28;49.06;99139.78;4963869;28;124963;-92
2022/05/10 04:15:19;;;;;;;5.03;4.60;;;17.70;72.50;;;18.27;49.12;99129.78;4971679;28;123898;-91
2022/05/10 04:17:46;;;;;;;6.13;5.53;;;17.70;72.60;;;18.27;49.19;99129.78;4962454;28;115084;-92
2022/05/10 04:20:14;;;;;;;5.40;4.90;;;17.60;72.60;;;18.25;49.18;99135.72;4981546;28;116127;-90
2022/05/10 04:22:41;;;;;;;5.40;4.90;;;17.60;72.80;;;18.29;49.20;99130.22;4958335;28;123907;-91
2022/05/10 04:25:09;;;;;;;5.67;5.10;;;17.70;73.30;;;18.37;49.17;99128.44;4965242;28;122587;-92
2022/05/10 04:27:36;;;;;;;5.63;5.03;;;17.70;73.30;;;18.42;49.01;99130.97;4984314;28;114159;-94
2022/05/10 04:30:04;;;;;;;5.17;4.77;;;17.70;73.40;;;18.41;49.02;99124.59;4959786;28;113276;-91
2022/05/10 04:32:36;;;;;;;5.30;4.80;;;17.70;73.40;;;18.39;49.02;99129.72;4967545;28;124074;-91
2022/05/10 04:35:09;;;;;;;6.57;5.13;;;17.80;73.40;;;18.39;49.15;99132.50;4971987;28;124004;-91
2022/05/10 04:37:35;;;;;;;6.10;4.63;;;17.80;73.50;;;18.38;49.08;99130.91;4948807;28;115571;-90
2022/05/10 04:42:50;;;;;;;5.53;4.93;;;17.80;73.60;;;18.39;49.13;99134.50;4971827;28;124992;-90
2022/05/10 04:45:17;;;;;;;5.10;4.60;;;17.80;73.60;;;18.40;49.20;99133.31;4973410;28;123872;-90
2022/05/10 04:47:43;;;;;;;5.43;4.93;;;17.80;73.70;;;18.39;49.24;99132.50;4968313;28;114217;-91
2022/05/10 04:50:11;;;;;;;5.40;4.50;;;17.80;73.70;;;18.40;49.20;99134.13;4968569;28;114001;-90
2022/05/10 04:52:39;;;;;;;7.20;5.87;;;17.80;73.90;;;18.41;49.14;99130.19;4970169;28;124035;-91
2022/05/10 04:55:10;;;;;;;6.13;5.13;;;17.80;73.90;;;18.45;49.11;99133.88;4969811;28;124402;-91
2022/05/10 04:57:38;;;;;;;5.10;4.63;;;17.80;74.00;;;18.46;49.26;99131.91;4968096;28;114271;-91
2022/05/10 05:00:08;;;;;;;5.27;4.77;;;17.80;74.10;;;18.49;49.24;99136.78;4969356;28;114010;-92
2022/05/10 05:02:35;;;;;;;6.60;5.67;;;17.80;74.20;;;18.51;49.30;99140.03;4973617;28;122271;-90
2022/05/10 05:05:02;;;;;;;7.10;5.27;;;17.90;74.40;;;18.53;49.15;99132.91;4976695;28;124320;-89
2022/05/10 05:07:29;;;;;;;6.37;5.27;;;17.90;74.40;;;18.55;49.14;99144.56;4995881;28;114984;-89
2022/05/10 05:09:56;;;;;;;5.27;4.60;;;17.90;74.40;;;18.57;49.09;99133.00;4951506;28;114929;-89
2022/05/10 05:12:23;;;;;;;5.43;4.93;;;17.90;74.40;;;18.59;49.21;99130.69;4965856;28;122960;-89
2022/05/10 05:14:49;;;;;;;5.73;4.93;;;17.90;74.40;;;18.60;48.99;99143.50;4948773;28;123969;-90
2022/05/10 05:17:16;;;;;;;7.37;6.67;;;18.00;74.50;;;18.61;49.10;99138.69;4947315;28;114358;-90
2022/05/10 05:19:43;;;;;;;6.50;5.20;;;18.00;74.50;;;18.61;49.24;99138.69;4947763;28;114538;-89
2022/05/10 05:22:09;;;;;;;6.17;5.57;;;18.00;74.60;;;18.65;48.98;99153.63;4963713;28;124721;-90
2022/05/10 05:24:36;;;;;;;5.43;4.93;;;18.00;74.60;;;18.69;49.10;99151.72;4951000;28;123987;-88
2022/05/10 05:27:03;;;;;;;7.50;6.80;;;18.00;74.80;;;18.72;49.13;99145.41;4968967;28;114243;-90
2022/05/10 05:29:29;;;;;;;5.57;5.00;;;18.10;74.90;;;18.77;49.09;99153.56;4970522;28;113775;-88
2022/05/10 05:31:56;;;;;;;6.47;5.70;;;18.10;75.60;;;18.81;49.12;99143.28;4983249;28;124071;-87
2022/05/10 05:34:23;;;;;;;6.97;6.03;;;18.10;75.00;;;18.83;49.01;99146.53;4970285;28;123822;-88
2022/05/10 05:37:32;;;;;;;9.77;7.03;;;18.10;75.10;;;18.83;49.04;99145.72;4968421;28;114489;-87
2022/05/10 05:39:37;;;;;;;11.37;7.10;;;18.10;75.10;;;18.84;49.13;99144.56;4970569;28;113660;-90
2022/05/10 05:42:04;;;;;;;7.43;6.70;;;18.20;75.20;;;18.88;49.11;99143.47;4949031;28;123957;-88
2022/05/10 05:44:31;;;;;;;8.13;6.73;;;18.20;75.20;;;18.92;49.06;99147.19;4949695;28;122793;-89
2022/05/10 05:46:57;;;;;;;6.13;5.53;;;18.20;75.30;;;18.95;49.11;99149.25;4948822;28;114367;-87
2022/05/10 05:49:28;;;;;;;7.43;6.40;;;18.30;75.40;;;19.03;48.91;99149.47;4961617;28;113870;-90
2022/05/10 05:51:59;;;;;;;6.27;5.43;;;18.30;75.40;;;19.06;48.94;99159.94;4962356;28;124302;-88
2022/05/10 05:54:27;;;;;;;6.50;5.90;;;18.40;75.50;;;19.12;49.00;99155.69;4947003;28;123767;-90
2022/05/10 05:57:05;;;;;;;6.10;5.50;;;18.40;75.50;;;19.17;48.87;99158.22;4930955;28;114806;-87
2022/05/10 05:59:33;;;;;;;6.87;6.20;;;18.50;75.60;;;19.22;48.82;99155.16;4946704;28;115015;-89
2022/05/10 06:01:59;;;;;;;7.80;5.80;;;18.50;75.50;;;19.28;48.72;99156.50;4963274;28;123637;-89
2022/05/10 06:04:26;;;;;;;7.10;5.93;;;18.50;75.40;;;19.33;48.70;99155.41;4967204;28;124196;-88
2022/05/10 06:06:53;;;;;;;6.40;5.80;;;18.60;75.50;;;19.38;48.72;99150.34;4971658;28;114385;-89
2022/05/10 06:09:22;;;;;;;6.20;5.60;;;18.60;75.30;;;19.43;48.60;99147.28;4989645;28;113052;-89
2022/05/10 06:11:49;;;;;;;8.33;5.10;;;18.70;75.40;;;19.50;48.62;99157.81;4972630;28;123865;-90
2022/05/10 06:14:17;;;;;;;9.67;7.97;;;18.80;75.50;;;19.53;48.53;99151.53;4970380;28;122171;-89
2022/05/10 06:16:44;;;;;;;13.10;7.67;;;18.80;75.50;;;19.53;48.62;99153.47;4982873;28;114196;-90
2022/05/10 06:19:13;;;;;;;7.13;6.43;;;18.80;75.50;;;19.54;48.50;99155.94;4952905;28;113940;-89
2022/05/10 06:21:41;;;;;;;7.30;6.60;;;18.90;75.50;;;19.60;48.51;99156.47;4967090;28;124137;-89
2022/05/10 06:24:10;;;;;;;6.67;5.97;;;18.90;75.40;;;19.68;48.21;99149.06;4970651;28;124663;-88
2022/05/10 06:26:37;;;;;;;12.70;6.87;;;19.00;75.40;;;19.76;48.25;99148.88;4969226;28;113333;-88
2022/05/10 06:29:04;;;;;;;8.50;7.40;;;19.00;75.30;;;19.82;48.25;99157.81;4999766;28;114425;-89
2022/05/10 06:31:31;;;;;;;7.53;6.73;;;19.10;75.30;;;19.83;47.89;99153.84;4967216;28;123981;-89
2022/05/10 06:33:57;;;;;;;7.50;6.57;;;19.10;75.20;;;19.82;48.15;99153.00;4970216;28;124463;-90
2022/05/10 06:36:24;;;;;;;9.73;6.30;;;19.20;75.10;;;19.88;47.99;99149.91;4969616;28;114162;-88
2022/05/10 06:38:53;;;;;;;6.50;5.90;;;19.20;75.10;;;19.96;47.85;99146.94;4972042;28;114244;-88
2022/05/10 06:41:22;;;;;;;6.80;5.57;;;19.30;75.20;;;20.06;47.77;99146.31;4956313;28;123325;-88
2022/05/10 06:43:49;;;;;;;7.33;6.57;;;19.30;75.10;;;20.18;47.88;99148.19;4970812;28;123727;-89
2022/05/10 06:46:20;;;;;;;12.40;7.30;;;19.40;75.10;;;20.22;47.28;99157.50;4974732;28;114296;-89
2022/05/10 06:48:48;;;;;;;11.80;8.00;;;19.50;74.90;;;20.22;47.51;99143.47;4991680;28;114954;-88
2022/05/10 06:51:21;;;;;;;9.37;7.07;;;19.50;74.70;;;20.25;47.42;99150.31;4972269;28;124026;-87
2022/05/10 06:53:48;;;;;;;7.40;6.37;;;19.50;74.60;;;20.33;47.54;99142.88;4978957;28;122885;-89
2022/05/10 06:56:15;;;;;;;6.70;6.00;;;19.60;74.70;;;20.44;47.15;99149.50;4969871;28;113634;-89
2022/05/10 06:58:42;;;;;;;7.33;6.47;;;19.70;74.70;;;20.50;47.42;99142.44;4970502;28;113912;-90
2022/05/10 07:01:12;;;;;;;7.53;6.37;;;19.80;74.70;;;20.57;47.00;99139.78;4987904;28;123141;-89
2022/05/10 07:03:50;;;;;;;9.73;6.97;;;19.80;74.50;;;20.67;46.90;99144.00;4986861;28;122716;-89
2022/05/10 07:06:22;;;;;;;6.87;6.17;;;19.90;74.50;;;20.73;47.12;99134.88;4961685;28;114622;-90
2022/05/10 07:08:49;;;;;;;7.57;6.40;;;20.00;74.50;;;20.82;46.97;99143.09;4959111;28;114553;-89
2022/05/10 07:11:16;;;;;;;11.20;7.13;;;20.00;74.30;;;20.88;46.51;99132.34;4987389;28;123563;-91
2022/05/10 07:13:43;;;;;;;8.23;6.80;;;20.10;74.20;;;20.94;46.72;99139.28;4969261;28;123682;-89
2022/05/10 07:16:10;;;;;;;8.90;6.23;;;20.30;74.30;;;21.00;46.50;99134.97;4973551;28;114200;-89
2022/05/10 07:18:36;;;;;;;7.30;6.43;;;20.30;74.20;;;21.10;46.46;99131.53;4951563;28;113945;-88
2022/05/10 07:21:03;;;;;;;5.70;5.13;;;20.40;74.20;;;21.21;46.60;99125.28;4957193;28;124032;-89
2022/05/10 07:23:31;;;;;;;5.73;5.13;;;20.40;74.10;;;21.32;46.40;99134.72;4976574;28;123067;-89
2022/05/10 07:25:58;;;;;;;12.10;6.77;;;20.60;74.10;;;21.42;45.95;99122.84;4962895;28;114722;-89
2022/05/10 07:28:29;;;;;;;6.37;5.57;;;20.60;73.90;;;21.49;46.04;99128.56;4950971;28;113980;-89
2022/05/10 07:30:58;;;;;;;7.00;6.30;;;20.70;73.90;;;21.56;45.74;99125.88;4950095;28;124553;-88
2022/05/10 07:33:27;;;;;;;7.43;5.40;;;20.80;73.80;;;21.66;45.67;99127.25;4949241;28;122889;-88
2022/05/10 07:38:41;;;;;;;6.90;5.53;;;21.00;73.80;;;21.88;45.51;99131.19;4997436;28;115545;-89
2022/05/10 07:41:08;;;;;;;5.67;5.17;;;21.10;73.70;;;21.98;45.48;99124.09;4955174;28;124169;-89
2022/05/10 07:43:38;;;;;;;6.60;5.40;;;21.10;73.60;;;22.08;45.21;99134.66;4969872;28;123794;-88
2022/05/10 07:46:06;;;;;;;9.30;6.90;;;21.30;73.50;;;22.16;45.29;99127.13;4972634;28;113546;-88
2022/05/10 07:48:33;;;;;;;5.70;5.17;;;21.30;73.20;;;22.23;45.22;99135.69;4971302;28;113969;-89
2022/05/10 07:51:01;;;;;;;6.90;5.40;;;21.40;73.10;;;22.31;45.04;99131.78;4968464;28;124497;-88
2022/05/10 07:53:31;;;;;;;7.37;4.80;;;21.50;73.00;;;22.42;44.97;99123.47;4971916;28;123183;-89
2022/05/10 07:55:59;;;;;;;5.13;4.63;;;21.60;72.90;;;22.52;44.76;99124.78;4987717;28;114493;-89
2022/05/10 07:58:28;;;;;;;5.30;4.80;;;21.70;72.80;;;22.63;44.57;99117.25;4988423;28;113946;-89
2022/05/10 08:01:51;;;;;;;7.80;4.90;;;21.80;72.70;;;22.72;44.20;99118.56;4975266;28;124447;-87
2022/05/10 08:04:18;;;;;;;5.20;4.53;;;21.90;72.40;;;22.82;43.98;99122.69;4981669;28;123380;-88
2022/05/10 08:06:46;;;;;;;5.70;5.20;;;22.00;72.10;;;22.89;43.61;99117.13;4987981;28;114942;-88
2022/05/10 08:09:13;;;;;;;7.03;5.00;;;22.10;71.50;;;22.96;43.28;99121.22;4988470;28;113343;-87
2022/05/10 08:11:40;;;;;;;5.77;4.33;;;22.20;70.90;;;23.00;43.32;99113.63;4970835;28;124402;-88
2022/05/10 08:14:06;;;;;;;5.27;4.50;;;22.30;70.60;;;23.05;42.74;99118.91;4984007;28;124519;-88
2022/05/10 08:16:33;;;;;;;4.70;4.30;;;22.30;69.70;;;23.11;42.77;99117.38;4986854;28;113252;-89
2022/05/10 08:19:00;;;;;;;4.20;3.80;;;22.40;69.70;;;23.17;42.66;99112.97;4950694;28;112928;-88
2022/05/10 08:21:27;;;;;;;4.90;4.40;;;22.40;69.30;;;23.21;42.28;99113.00;4987738;28;124531;-88
2022/05/10 08:23:55;;;;;;;5.00;4.50;;;22.50;68.90;;;23.27;42.10;99103.81;4970685;28;123673;-87
2022/05/10 08:26:23;;;;;;;4.57;4.17;;;22.60;68.70;;;23.37;41.92;99107.88;4991587;28;115217;-88
2022/05/10 08:28:50;;;;;;;6.53;5.27;;;22.60;68.60;;;23.43;41.15;99113.97;4952359;28;115182;-88
2022/05/10 08:31:20;;;;;;;5.60;4.30;;;22.70;67.60;;;23.48;41.31;99110.78;4950134;28;124165;-88
2022/05/10 08:33:47;;;;;;;4.63;4.23;;;22.70;67.60;;;23.54;41.25;99109.25;4949571;28;123440;-87
2022/05/10 08:36:14;;;;;;;4.70;4.20;;;22.80;67.10;;;23.62;41.13;99104.47;4950657;28;114091;-88
2022/05/10 08:38:40;;;;;;;4.60;4.20;;;22.90;67.20;;;23.70;40.74;99101.28;4963974;28;113923;-87
2022/05/10 08:41:30;;;;;;;4.70;4.30;;;23.00;66.90;;;23.76;40.67;99094.09;4967329;28;123763;-88
2022/05/10 08:44:16;;;;;;;5.30;4.47;;;23.10;66.50;;;23.80;40.50;99094.94;4970818;28;124441;-89
2022/05/10 08:47:07;;;;;;;4.83;4.20;;;23.10;66.10;;;23.87;40.35;99093.34;5001588;28;114284;-88
2022/05/10 08:49:42;;;;;;;4.93;4.53;;;23.20;66.00;;;23.92;40.22;99093.78;4975965;28;114049;-88
2022/05/10 08:52:13;;;;;;;4.60;4.20;;;23.20;65.80;;;23.98;40.17;99085.75;4970719;28;124243;-89
2022/05/10 08:54:41;;;;;;;5.47;3.97;;;23.30;65.40;;;24.04;39.83;99095.44;4971185;28;122832;-89
2022/05/10 08:57:16;;;;;;;4.23;3.83;;;23.40;65.20;;;24.10;39.78;99090.22;4957108;28;115137;-89
2022/05/10 09:00:00;;;;;;;4.37;3.97;;;23.40;65.00;;;24.18;39.51;99091.88;4971429;28;113783;-88
2022/05/10 09:02:29;;;;;;;4.80;4.20;;;23.50;64.80;;;24.24;39.39;99085.44;4969543;28;124521;-88
2022/05/10 09:05:05;;;;;;;3.83;3.50;;;23.60;64.40;;;24.30;39.14;99085.06;4969228;28;123977;-89
2022/05/10 09:07:35;;;;;;;4.33;3.93;;;23.60;64.10;;;24.37;38.98;99079.47;4966836;28;114209;-88
2022/05/10 09:10:14;;;;;;;5.00;4.40;;;23.70;63.80;;;24.42;38.75;99082.69;5005673;28;112032;-88
2022/05/10 09:13:05;;;;;;;4.37;3.97;;;23.70;63.50;;;24.46;38.12;99094.03;4984816;28;125281;-88
2022/05/10 09:15:46;;;;;;;4.70;4.30;;;23.80;62.30;;;24.49;37.93;99084.75;4974853;28;124575;-89
2022/05/10 09:18:21;;;;;;;4.23;3.83;;;23.80;62.10;;;24.52;38.07;99083.94;4987990;28;116079;-88
2022/05/10 09:21:02;;;;;;;4.53;3.83;;;23.90;61.90;;;24.58;37.74;99087.19;4989887;28;114573;-87
2022/05/10 09:23:40;;;;;;;5.77;4.93;;;23.90;61.60;;;24.60;37.07;99087.59;4957718;28;124851;-87
2022/05/10 09:26:08;;;;;;;6.07;4.13;;;23.90;60.70;;;24.61;37.78;99075.91;4956847;28;123273;-89
2022/05/10 09:28:39;;;;;;;4.90;4.20;;;24.00;61.00;;;24.65;37.30;99079.53;4970656;28;114938;-89
2022/05/10 09:37:12;;;;;;;4.03;3.63;;;24.10;60.40;;;24.84;36.98;99069.06;4998246;28;124491;-87
2022/05/10 09:39:56;;;;;;;5.30;4.07;;;24.20;60.00;;;24.90;36.34;99073.09;4960873;28;113567;-89
2022/05/10 09:42:45;;;;;;;4.83;4.33;;;24.20;58.80;;;24.95;36.22;99069.88;4982820;28;113092;-88
2022/05/10 09:45:26;;;;;;;4.50;4.10;;;24.30;58.90;;;24.99;36.57;99075.56;4978851;28;124324;-91
2022/05/10 09:48:17;;;;;;;4.60;4.20;;;24.20;58.60;;;24.98;36.49;99071.91;4965752;28;124346;-88
2022/05/10 09:50:48;;;;;;;3.90;3.60;;;24.40;58.60;;;25.04;35.82;99066.66;4990861;28;112848;-89
2022/05/10 09:53:27;;;;;;;5.53;3.80;;;24.50;58.60;;;25.10;36.41;99070.72;4969146;28;114077;-88
2022/05/10 09:56:27;;;;;;;4.40;3.57;;;24.50;58.40;;;25.14;36.09;99055.34;4969507;28;123184;-90
2022/05/10 09:59:26;;;;;;;3.70;3.40;;;24.60;58.10;;;25.18;35.85;99051.75;4951973;28;123383;-88
2022/05/10 10:01:56;;;;;;;5.23;3.97;;;24.60;58.20;;;25.26;36.10;99050.53;4992299;28;113901;-88
2022/05/10 10:04:37;;;;;;;4.57;4.17;;;24.70;58.10;;;25.31;36.04;99044.47;4966835;28;113606;-88
2022/05/10 10:07:20;;;;;;;4.13;3.73;;;24.70;57.70;;;25.37;35.96;99044.88;5002124;28;123991;-89
2022/05/10 10:09:55;;;;;;;4.13;3.73;;;24.80;57.70;;;25.44;35.52;99045.66;4974660;28;123689;-90
2022/05/10 10:12:36;;;;;;;6.53;4.27;;;24.80;57.20;;;25.50;35.21;99035.53;4969088;28;115785;-88
2022/05/10 10:15:40;;;;;;;5.33;4.17;;;24.90;57.00;;;25.54;35.17;99039.16;4972405;28;114848;-89
2022/05/10 10:18:11;;;;;;;4.30;3.90;;;24.90;56.30;;;25.60;34.40;99036.72;4987819;28;124127;-89
2022/05/10 10:24:49;;;;;;;4.57;4.17;;;25.10;55.60;;;25.63;34.39;99040.75;4984434;28;114429;-86
2022/05/10 10:27:35;;;;;;;5.30;4.13;;;25.10;55.50;;;25.66;34.14;99034.31;4993453;28;114480;-88
2022/05/10 10:30:33;;;;;;;4.30;3.90;;;25.10;55.20;;;25.69;34.22;99039.13;4954975;28;124416;-88
2022/05/10 10:33:29;;;;;;;4.00;3.50;;;25.10;55.00;;;25.74;34.22;99035.91;4950294;28;124108;-89
2022/05/10 10:36:09;;;;;;;3.93;3.30;;;25.20;55.30;;;25.81;34.37;99030.19;4971688;28;113945;-88
2022/05/10 10:39:17;;;;;;;3.90;3.60;;;25.20;55.00;;;25.86;34.33;99021.31;5006031;28;113323;-86
2022/05/10 10:42:09;;;;;;;3.00;2.70;;;25.30;54.60;;;25.92;33.70;99025.31;4898354;28;123341;-87
2022/05/10 10:44:41;;;;;;;3.33;3.03;;;25.40;54.60;;;25.98;33.94;99017.22;4988393;28;123416;-88
2022/05/10 10:47:29;;;;;;;3.80;3.33;;;25.40;54.30;;;26.00;33.47;99012.75;4969358;28;114714;-89
2022/05/10 10:50:23;;;;;;;3.53;3.23;;;25.50;53.80;;;26.05;33.64;99014.34;4960227;28;114607;-88
2022/05/10 10:52:56;;;;;;;4.27;3.43;;;25.50;53.80;;;26.12;32.80;99008.66;4997313;28;123001;-87
2022/05/10 10:55:53;;;;;;;4.00;3.50;;;25.50;53.20;;;26.17;33.05;99010.25;4969478;28;124470;-88
2022/05/10 10:58:57;;;;;;;5.87;5.27;;;25.60;53.10;;;26.24;33.00;99004.53;4965086;28;114596;-89
2022/05/10 11:01:43;;;;;;;7.60;4.70;;;25.70;52.50;;;26.32;32.49;99002.47;4951470;28;114043;-88
2022/05/10 11:04:40;;;;;;;4.80;4.13;;;25.70;52.10;;;26.38;32.27;99001.63;4949918;28;123823;-89